Time;durP1;ratioP1;P1;durP2;ratioP2;P2;SDS_P1;SDS_P2;PMS_P1;PMS_P2;Temp;Humidity;BMP_temperature;BMP_pressure;BME280_temperature;BME280_humidity;BME280_pressure;Samples;Min_cycle;Max_cycle;Signal;HPM_P1;HPM_P2
2021/04/23 00:07:40;;;;;;;13.80;4.85;;;;;;;6.26;61.16;101135.56;20962280;28;20056;-71
2021/04/23 00:17:41;;;;;;;15.52;5.10;;;;;;;6.07;62.21;101136.91;20971192;28;20048;-71
2021/04/23 00:27:42;;;;;;;13.50;4.75;;;;;;;5.96;63.03;101142.34;20974285;28;20053;-71
2021/04/23 00:37:47;;;;;;;17.13;5.72;;;;;;;5.82;63.87;101154.78;20977028;28;20131;-71
2021/04/23 00:47:49;;;;;;;19.77;5.10;;;;;;;5.65;65.27;101156.88;20821921;28;20115;-71
2021/04/23 00:57:50;;;;;;;16.25;4.38;;;;;;;5.47;65.60;101152.09;20883946;28;20615;-71
2021/04/23 01:07:51;;;;;;;17.95;5.40;;;;;;;5.13;67.12;101147.59;20974900;28;20067;-71
2021/04/23 01:17:53;;;;;;;16.42;5.38;;;;;;;5.14;67.37;101151.91;20984735;28;20040;-70
2021/04/23 01:27:54;;;;;;;15.25;5.03;;;;;;;4.92;68.68;101148.03;20970947;28;20495;-71
2021/04/23 01:37:55;;;;;;;19.17;5.88;;;;;;;4.84;69.62;101152.50;20945875;28;20117;-71
2021/04/23 01:47:56;;;;;;;12.68;5.43;;;;;;;4.76;70.09;101169.94;20905822;28;20470;-71
2021/04/23 01:57:57;;;;;;;24.48;5.50;;;;;;;4.63;70.78;101178.81;20943318;28;20389;-70
2021/04/23 02:07:59;;;;;;;17.77;5.43;;;;;;;4.50;71.15;101191.13;20989285;28;20459;-70
2021/04/23 02:18:01;;;;;;;20.13;5.55;;;;;;;4.45;71.33;101189.50;20998050;28;20099;-70
2021/04/23 02:28:05;;;;;;;19.92;5.75;;;;;;;4.44;71.32;101192.97;20983703;28;20048;-71
2021/04/23 02:38:06;;;;;;;19.00;5.68;;;;;;;4.28;72.14;101185.44;20986346;28;20483;-71
2021/04/23 02:48:10;;;;;;;22.83;6.63;;;;;;;4.12;73.11;101196.91;20996261;28;20087;-71
2021/04/23 02:58:17;;;;;;;20.15;5.88;;;;;;;4.05;73.19;101204.81;20981391;28;20061;-71
2021/04/23 03:08:19;;;;;;;17.38;7.55;;;;;;;3.99;73.96;101210.94;20977496;28;20417;-71
2021/04/23 03:18:23;;;;;;;19.40;6.63;;;;;;;3.94;73.36;101223.09;20910562;28;20056;-71
2021/04/23 03:28:24;;;;;;;20.38;6.22;;;;;;;3.96;73.38;101221.34;20909933;28;20045;-71
2021/04/23 03:38:29;;;;;;;21.17;6.30;;;;;;;3.91;74.11;101217.97;20910207;28;20106;-70
2021/04/23 03:48:30;;;;;;;15.87;5.80;;;;;;;3.98;73.47;101214.41;20917248;28;20041;-71
2021/04/23 03:58:32;;;;;;;18.90;6.57;;;;;;;3.75;74.71;101226.81;20908090;28;20053;-70
2021/04/23 04:08:34;;;;;;;21.05;7.53;;;;;;;3.68;74.71;101226.03;20906416;28;20095;-71
2021/04/23 04:18:35;;;;;;;18.50;7.07;;;;;;;3.56;75.36;101240.84;20914819;28;20052;-70
2021/04/23 04:28:36;;;;;;;18.70;7.60;;;;;;;3.51;75.64;101250.38;20905284;28;20464;-71
2021/04/23 04:38:37;;;;;;;21.40;7.28;;;;;;;3.51;75.79;101255.56;20905612;28;20103;-71
2021/04/23 04:48:38;;;;;;;19.90;7.65;;;;;;;3.56;76.08;101274.47;20911624;28;20053;-68
2021/04/23 04:58:41;;;;;;;20.08;7.70;;;;;;;3.66;75.43;101279.53;20903962;28;20044;-69
2021/04/23 05:08:43;;;;;;;21.65;8.02;;;;;;;3.73;75.13;101280.34;20926462;28;20045;-68
2021/04/23 05:18:44;;;;;;;23.23;8.45;;;;;;;4.08;73.65;101288.50;20925364;28;20056;-69
2021/04/23 05:28:46;;;;;;;22.40;8.43;;;;;;;4.24;72.30;101299.53;20901491;28;20049;-69
2021/04/23 05:38:49;;;;;;;22.20;8.48;;;;;;;4.44;71.78;101307.00;20900340;28;20044;-69
2021/04/23 05:48:51;;;;;;;24.75;9.48;;;;;;;4.59;71.07;101314.56;20907981;28;20140;-69
2021/04/23 05:58:54;;;;;;;23.20;10.05;;;;;;;4.98;70.83;101320.84;20898245;28;20052;-69
2021/04/23 06:08:55;;;;;;;23.73;8.95;;;;;;;5.34;70.54;101321.94;20900132;28;20080;-69
2021/04/23 06:18:56;;;;;;;24.17;10.18;;;;;;;5.85;68.95;101338.28;20902450;28;20045;-69
2021/04/23 06:28:57;;;;;;;28.80;10.70;;;;;;;6.08;67.77;101335.28;20895033;28;20559;-69
2021/04/23 06:38:58;;;;;;;20.27;9.45;;;;;;;6.50;67.14;101349.97;20907181;28;20102;-69
2021/04/23 06:48:59;;;;;;;21.85;8.73;;;;;;;6.88;65.97;101357.72;20916296;28;20052;-69
2021/04/23 06:59:00;;;;;;;23.80;8.43;;;;;;;7.08;62.84;101366.78;20908380;28;20111;-68
2021/04/23 07:09:02;;;;;;;30.90;8.88;;;;;;;7.47;62.41;101360.56;20894662;28;582651;-68
2021/04/23 07:19:03;;;;;;;22.10;8.95;;;;;;;7.86;61.24;101363.88;20922847;28;20057;-69
2021/04/23 07:29:06;;;;;;;23.30;9.45;;;;;;;8.03;59.63;101377.28;20993053;28;20135;-68
2021/04/23 07:39:10;;;;;;;18.50;8.57;;;;;;;8.38;58.88;101365.84;20962281;28;20500;-68
2021/04/23 07:49:11;;;;;;;20.15;8.52;;;;;;;8.80;57.19;101374.16;20909024;28;20056;-69
2021/04/23 07:59:12;;;;;;;18.45;7.80;;;;;;;9.01;56.23;101376.06;20910858;28;20167;-69
2021/04/23 08:09:13;;;;;;;27.63;9.90;;;;;;;9.44;55.93;101374.66;20908041;28;20052;-69
2021/04/23 08:19:14;;;;;;;14.13;6.38;;;;;;;9.68;55.34;101370.34;20981866;28;20148;-68
2021/04/23 08:29:15;;;;;;;13.98;6.97;;;;;;;9.80;50.73;101367.31;20990015;28;20075;-68
2021/04/23 08:39:16;;;;;;;21.73;6.75;;;;;;;10.00;50.36;101367.44;20973671;28;20508;-69
2021/04/23 08:49:18;;;;;;;17.70;7.28;;;;;;;10.46;49.98;101365.78;20983677;28;20706;-70
2021/04/23 08:59:19;;;;;;;17.65;7.38;;;;;;;10.69;49.68;101348.25;20985547;28;20101;-70
2021/04/23 09:09:20;;;;;;;20.33;7.53;;;;;;;11.10;46.79;101359.69;20969100;28;20041;-71
2021/04/23 09:19:22;;;;;;;17.30;7.70;;;;;;;11.41;47.74;101359.25;20874494;28;20062;-69
2021/04/23 09:29:27;;;;;;;25.23;7.72;;;;;;;11.46;44.75;101357.28;20813267;28;20045;-70
2021/04/23 09:39:28;;;;;;;24.55;8.30;;;;;;;12.06;47.09;101352.06;20858393;28;20529;-70
2021/04/23 09:49:30;;;;;;;18.27;7.57;;;;;;;12.21;42.71;101359.25;20906586;28;20088;-70
2021/04/23 09:59:30;;;;;;;15.60;7.53;;;;;;;12.63;43.33;101354.63;20903443;28;20045;-70
2021/04/23 10:09:33;;;;;;;22.58;8.15;;;;;;;12.35;41.12;101343.72;20944115;28;20064;-70
2021/04/23 10:19:34;;;;;;;18.02;7.88;;;;;;;12.41;40.66;101346.91;20925370;28;20087;-70
2021/04/23 10:29:36;;;;;;;16.70;7.70;;;;;;;13.02;39.10;101351.84;20917970;28;20045;-71
2021/04/23 10:39:42;;;;;;;20.27;7.72;;;;;;;13.36;38.78;101335.28;20924812;28;20049;-71
2021/04/23 10:50:19;;;;;;;16.75;6.82;;;;;;;12.86;36.23;101320.22;20916524;28;20103;-70
2021/04/23 11:00:39;;;;;;;12.27;6.50;;;;;;;13.12;36.37;101315.47;20907964;28;20049;-71
2021/04/23 11:11:13;;;;;;;15.73;7.10;;;;;;;13.67;36.55;101319.63;20925449;28;20087;-69
2021/04/23 11:21:26;;;;;;;15.30;6.18;;;;;;;13.59;36.53;101313.91;21006497;28;20075;-71
2021/04/23 11:31:27;;;;;;;16.42;6.10;;;;;;;13.77;36.01;101308.59;21025052;28;20071;-70
2021/04/23 11:41:28;;;;;;;16.13;6.63;;;;;;;13.81;33.89;101299.63;20982680;28;20053;-70
2021/04/23 11:51:29;;;;;;;11.07;5.85;;;;;;;14.16;34.02;101290.69;20912810;28;20041;-70
2021/04/23 12:01:37;;;;;;;14.20;5.00;;;;;;;14.23;31.22;101280.66;20910163;28;20047;-70
2021/04/23 12:11:38;;;;;;;11.27;4.82;;;;;;;14.50;30.80;101279.16;20927375;28;20052;-71
2021/04/23 12:21:39;;;;;;;14.30;5.13;;;;;;;14.42;29.59;101268.22;20954109;28;20052;-70
2021/04/23 12:31:40;;;;;;;9.02;4.22;;;;;;;14.60;28.03;101256.63;20894984;28;20045;-70
2021/04/23 12:42:03;;;;;;;7.38;3.40;;;;;;;14.25;24.32;101258.56;20892419;28;20049;-70
2021/04/23 12:52:10;;;;;;;11.48;3.80;;;;;;;14.54;27.42;101241.16;20870712;28;20107;-69
2021/04/23 13:02:36;;;;;;;9.40;3.90;;;;;;;14.87;27.81;101246.28;20869430;28;20098;-69
2021/04/23 13:12:39;;;;;;;8.73;4.30;;;;;;;14.88;26.07;101238.25;20891983;28;20045;-69
2021/04/23 13:22:48;;;;;;;12.23;4.22;;;;;;;15.10;27.62;101223.81;20895782;28;20045;-69
2021/04/23 13:32:51;;;;;;;9.32;4.43;;;;;;;15.35;25.54;101227.50;20882309;28;20084;-69
2021/04/23 13:43:04;;;;;;;11.95;4.85;;;;;;;15.42;25.02;101217.44;20891346;28;20191;-70
2021/04/23 13:53:05;;;;;;;10.93;4.82;;;;;;;15.51;25.02;101216.91;20884534;28;20154;-69
2021/04/23 14:03:10;;;;;;;9.23;4.78;;;;;;;15.66;27.03;101208.03;20894690;28;20459;-69
2021/04/23 14:13:12;;;;;;;10.40;4.68;;;;;;;15.59;27.25;101188.25;20927884;28;20050;-69
2021/04/23 14:23:13;;;;;;;10.13;5.57;;;;;;;15.50;27.66;101182.66;20886926;28;20045;-69
2021/04/23 14:33:14;;;;;;;13.85;4.70;;;;;;;15.77;27.09;101165.97;20892107;28;20049;-69
2021/04/23 14:43:15;;;;;;;10.98;4.60;;;;;;;16.01;25.43;101168.81;20890385;28;20041;-69
2021/04/23 14:53:16;;;;;;;12.88;4.93;;;;;;;15.65;28.10;101157.97;20890370;28;20103;-69
2021/04/23 15:03:19;;;;;;;17.02;6.10;;;;;;;15.63;29.05;101152.81;20934580;28;20500;-70
2021/04/23 15:13:21;;;;;;;16.08;6.25;;;;;;;15.96;29.24;101141.88;20909815;28;20045;-70
2021/04/23 15:23:22;;;;;;;13.57;6.30;;;;;;;15.88;27.75;101145.97;20907083;28;20893;-69
2021/04/23 15:33:23;;;;;;;14.05;5.60;;;;;;;15.76;27.11;101127.31;20909825;28;20124;-69
2021/04/23 15:43:25;;;;;;;13.48;6.30;;;;;;;15.87;29.78;101113.44;20940294;28;20052;-69
2021/04/23 15:53:27;;;;;;;16.20;6.93;;;;;;;16.06;29.06;101119.19;20905760;28;20037;-69
2021/04/23 16:03:28;;;;;;;14.50;6.15;;;;;;;15.98;28.38;101110.94;20895380;28;20107;-70
2021/04/23 16:13:30;;;;;;;13.25;6.18;;;;;;;15.85;29.41;101103.94;20919010;28;20116;-71
2021/04/23 16:23:30;;;;;;;14.10;6.90;;;;;;;15.99;29.82;101111.78;20935948;28;20092;-69
2021/04/23 16:33:32;;;;;;;12.43;6.70;;;;;;;15.97;30.18;101103.97;20924227;28;20048;-69
2021/04/23 16:43:33;;;;;;;16.75;6.25;;;;;;;16.01;30.88;101104.59;20911001;28;20116;-70
2021/04/23 16:53:34;;;;;;;18.80;7.30;;;;;;;16.18;30.47;101099.06;20938784;28;20048;-69
2021/04/23 17:03:35;;;;;;;12.95;5.82;;;;;;;15.99;30.53;101074.84;20935480;28;20102;-70
2021/04/23 17:13:36;;;;;;;13.88;6.93;;;;;;;15.95;30.58;101079.44;20940627;28;20060;-70
2021/04/23 17:23:38;;;;;;;20.00;6.90;;;;;;;15.69;30.83;101075.03;20926175;28;20480;-69
2021/04/23 17:33:39;;;;;;;15.77;6.47;;;;;;;15.45;31.33;101069.50;20903873;28;20489;-69
2021/04/23 17:43:40;;;;;;;13.90;5.80;;;;;;;15.29;31.67;101074.88;20910062;28;20052;-70
2021/04/23 17:53:43;;;;;;;13.75;4.88;;;;;;;15.01;31.71;101074.94;20908263;28;20103;-70
2021/04/23 18:03:45;;;;;;;12.40;5.38;;;;;;;14.50;33.26;101069.25;20906401;28;20618;-69
2021/04/23 18:13:47;;;;;;;16.55;5.53;;;;;;;14.09;34.25;101079.56;20933723;28;20540;-70
2021/04/23 18:23:49;;;;;;;15.93;4.90;;;;;;;13.67;35.20;101090.72;20947116;28;20091;-69
2021/04/23 18:33:51;;;;;;;11.23;4.80;;;;;;;13.24;36.19;101088.78;20929892;28;20040;-69
2021/04/23 18:44:11;;;;;;;9.32;4.82;;;;;;;12.90;36.83;101100.19;20925165;28;20052;-70
2021/04/23 18:54:12;;;;;;;9.52;4.15;;;;;;;12.59;37.95;101105.38;20933169;28;20045;-69
2021/04/23 19:04:13;;;;;;;11.90;4.60;;;;;;;12.14;38.37;101109.34;20921451;28;20551;-70
2021/04/23 19:14:15;;;;;;;10.10;4.15;;;;;;;11.93;38.74;101121.78;20947561;28;20456;-70
2021/04/23 19:24:15;;;;;;;9.98;3.88;;;;;;;11.61;39.25;101125.03;20938936;28;20100;-70
2021/04/23 19:34:17;;;;;;;10.27;4.18;;;;;;;11.36;40.26;101134.94;20933323;28;20056;-70
2021/04/23 19:44:18;;;;;;;13.10;4.43;;;;;;;10.98;41.00;101141.88;20913809;28;20045;-71
2021/04/23 19:54:19;;;;;;;11.55;4.30;;;;;;;10.76;42.37;101139.38;20905986;28;20053;-70
2021/04/23 20:04:20;;;;;;;16.40;6.60;;;;;;;10.63;42.44;101128.56;20899901;28;20052;-70
2021/04/23 20:14:21;;;;;;;14.30;4.50;;;;;;;10.49;42.32;101120.47;20887483;28;20103;-70
2021/04/23 20:24:22;;;;;;;11.05;4.57;;;;;;;10.34;42.85;101130.72;20884704;28;20045;-69
2021/04/23 20:34:27;;;;;;;12.93;4.28;;;;;;;10.15;42.55;101123.59;20856344;28;20053;-69
2021/04/23 20:44:28;;;;;;;9.97;3.57;;;;;;;9.80;43.38;101132.00;20889004;28;20049;-69
2021/04/23 20:54:29;;;;;;;10.82;3.85;;;;;;;9.52;44.72;101120.91;20903885;28;20749;-69
2021/04/23 21:04:30;;;;;;;8.55;3.70;;;;;;;9.26;45.44;101117.50;20905160;28;20053;-69
2021/04/23 21:14:31;;;;;;;8.57;3.70;;;;;;;9.11;45.20;101120.69;20917726;28;20040;-69
2021/04/23 21:24:32;;;;;;;13.32;4.70;;;;;;;8.86;45.39;101110.28;20886188;28;20091;-69
2021/04/23 21:34:33;;;;;;;12.00;4.32;;;;;;;8.65;45.73;101108.44;20902861;28;20120;-69
2021/04/23 21:44:34;;;;;;;10.02;4.28;;;;;;;8.47;45.68;101102.09;20950641;28;20055;-69
2021/04/23 21:54:36;;;;;;;9.45;3.60;;;;;;;8.39;46.01;101106.72;20985823;28;20048;-69
2021/04/23 22:04:37;;;;;;;13.27;4.13;;;;;;;8.12;46.31;101105.00;20957358;28;20103;-69
2021/04/23 22:14:38;;;;;;;12.18;3.67;;;;;;;7.83;47.45;101108.53;20914632;28;20049;-69
2021/04/23 22:24:39;;;;;;;8.13;3.92;;;;;;;7.64;48.46;101102.19;20916573;28;20041;-68
2021/04/23 22:34:40;;;;;;;11.05;4.07;;;;;;;7.61;47.98;101104.91;20914836;28;20095;-69
2021/04/23 22:44:41;;;;;;;11.50;4.18;;;;;;;7.40;48.78;101105.56;20963742;28;20087;-69
2021/04/23 22:54:42;;;;;;;11.95;4.45;;;;;;;7.33;49.34;101107.47;20996808;28;20053;-68
2021/04/23 23:04:43;;;;;;;10.82;4.50;;;;;;;7.35;49.04;101097.88;20994421;28;20044;-68
2021/04/23 23:14:44;;;;;;;10.88;4.07;;;;;;;7.26;49.45;101093.78;20975829;28;20411;-69
2021/04/23 23:24:45;;;;;;;11.95;3.95;;;;;;;7.16;49.03;101087.13;20977050;28;20106;-69
2021/04/23 23:34:46;;;;;;;13.80;4.72;;;;;;;7.09;49.24;101084.78;20993149;28;20047;-69
2021/04/23 23:44:47;;;;;;;11.75;4.03;;;;;;;6.80;50.75;101083.00;20974601;28;20049;-69
2021/04/23 23:54:47;;;;;;;9.68;4.32;;;;;;;6.47;55.51;101076.09;20992004;28;20040;-69
